Search for airport 
image banner adimage banner adimage banner ad
image banner ad

62CL - Flying S Ranch

Located in Caliente, United States

ICAO - 62CL, IATA -

Data provided by Airmate  

General information

Coordinates: N35°24'26" W118°30'0"
Elevation is 3485 feet MSL.
Magnetic variation is 14° East
View others Airports in California

Operational data

Special qualification required
Current time UTC:
Current local time:
Weather at : KTSP - Tehachapi Muni ( 31 km )
METAR: KTSP 221435Z AUTO 00000KT 10SM CLR 18/01 A3006 RMK AO2
View NOTAMs / SUP AIP / TFR affecting this airport [VIEW]
Communications frequencies: [VIEW]

Runways:

RWY identifierQFULength (ft)Width (ft)SurfaceLDA (ft)
07375050EARTH
25375050EARTH

Airport contact information

Address: Caliente United States

Satellite view of 62CL